DNSO

Sadiq Abubakar III International Airport

Sokoto, Nigeria
TAF DNSO 180950Z 1812/1918 28010KT CAVOK
Issued Valid From Valid To
Jun-18 @ 09:50 UTC
(3 hours ago)
Jun-18 @ 12:00 UTC
(an hour ago)
Jun-19 @ 18:00 UTC
(-1 days ago)
Jun-18 @ 12:00 to Jun-19 @ 18:00
TAF DNSO 180950Z 1812/1918 28010KT CAVOK
Wind Visibility Clouds Conditions
280° at 10 knots 10,000+ meters
  • No significant clouds
TAF DNSO 180950Z 1812/1918 28010KT CAVOK
Issued Jun-18 @ 09:50 UTC
(3 hours ago)
Valid From Jun-18 @ 12:00 UTC
(an hour ago)
Valid To Jun-19 @ 18:00 UTC
(-1 days ago)
Jun-18 @ 12:00 - Jun-19 @ 18:00
Wind Visibility
280° at 10 knots 10,000+ meters
Clouds
  • No significant clouds
Conditions